Overview Statistics Trail Chart Weather Telemetry Raw packets
 

This is the latest recevied weather packets stored in our database for station/object WA1NHP. If no packets are shown the sender has not sent any weather packets the latest 10 day(s).

<< 3 4 5 6 7 8 9 >>
Time Temp. Humidity Pressure Rain* Wind** Luminosity Snow
1788557644 22.78° C 70% 1023.9 hPa 0 mm - 72 W/m² -
1788557043 22.22° C 74% 1023.9 hPa 0 mm - 90 W/m² -
1788556444 22.22° C 73% 1023.9 hPa 0 mm - 116 W/m² -
1788555844 22.78° C 67% 1023.9 hPa 0 mm - 79 W/m² -
1788555243 22.78° C 71% 1023.9 hPa 0 mm - 77 W/m² -
1788554644 23.33° C 66% 1023.9 hPa 0 mm - 77 W/m² -
1788554043 23.33° C 66% 1023.9 hPa 0 mm - 120 W/m² -
1788553444 24.44° C 61% 1023.9 hPa 0 mm - 176 W/m² -
1788552844 24.44° C 60% 1023.9 hPa 0 mm - 568 W/m² -
1788552243 23.89° C 64% 1023.9 hPa 0 mm - 554 W/m² -
1788551643 24.44° C 61% 1023.9 hPa 0 mm - 128 W/m² -
1788551043 23.89° C 63% 1023.9 hPa 0 mm - 633 W/m² -
1788550444 23.33° C 65% 1023.9 hPa 0 mm - 601 W/m² -
1788549844 23.33° C 64% 1023.9 hPa 0 mm - 172 W/m² -
1788549244 23.33° C 64% 1023.9 hPa 0 mm - 178 W/m² -
1788548644 23.89° C 61% 1023.9 hPa 0 mm - 206 W/m² -
1788548043 25° C 58% 1023.9 hPa 0 mm - 204 W/m² -
1788547443 25.56° C 63% 1023.9 hPa 0 mm - 909 W/m² -
1788546844 25.56° C 60% 1023.9 hPa 0 mm - 127 W/m² -
1788546244 25° C 69% 1023.9 hPa 0 mm - 853 W/m² -
1788545644 24.44° C 63% 1023.9 hPa 0 mm - 888 W/m² -
1788545044 24.44° C 66% 1023.9 hPa 0 mm - 295 W/m² -
1788544443 25° C 65% 1023.9 hPa 0 mm - 234 W/m² -
1788543844 25° C 63% 1023.9 hPa 0 mm - 905 W/m² -
1788543243 25° C 64% 1023.9 hPa 0 mm - 935 W/m² -

* Rain latest hour (hover to see other rain measurements)
** Current wind speed in m/s (hover to see current wind gust speed)